ENFB/FBU METAR and TAF weather

Enter ICAO airport designator
Station Type Date Time Source
ENFB METAR 2020/01/22 15:20 UTC NOAA

ENFB 221520Z AUTO 20025KT 9999NDV FEW016/// BKN039/// BKN080/// 07/04 Q1028 W///S5


Station Type Date Time Source
ENFB Decoded METAR 2020/01/22 15:20 UTC NOAA

Oslo / Fornebu, Norway (ENFB) 59-54N 010-38E 17M
Jan 22, 2020 - 10:20 AM EST / 2020.01.22 1520 UTC
Wind: from the SSW (200 degrees) at 29 MPH (25 KT):0
Sky conditions: mostly cloudy
Temperature: 44 F (7 C)
Dew Point: 39 F (4 C)
Relative Humidity: 81%
Pressure (altimeter): 30.36 in. Hg (1028 hPa)
ob: ENFB 221520Z AUTO 20025KT 9999NDV FEW016/// BKN039/// BKN080/// 07/04 Q1028 W///S5
cycle: 15

Station Type Date Time Source
ENFB TAF UTC NOAA

Error!

Example: see airport list